メインページ
METAR-TAF:

METAR-TAF

空港 :

但馬空港, 日本

但馬飛行場

緯度: 35-31N, 経度: 134-48E, 海抜: 210m

現時点の気象観測

当レポートは23分前の23:30(UTC)に作成
南/南西の風 4kt
気温 -1°C
湿度 86%
気圧 1022 hPa
視程10km以上
高度3500ftの雲はほとんどない
高度4000ftの千切れ雲あり
近辺でにわか雨

METAR: RJBT 182330Z 21004KT 9999 VCSH FEW035 BKN040 M01/M03 Q1022

時間: 08:53 (23:53 UTC)


TAF: 見つかりません

4,000以上の空港の気象観測と天気予報(METAR報とTAF報)

利用可能な観測所は地図上に黄色い丸と赤い丸で示す。

丸の上にカーソルを重ねると観測所名を参照できる。

次にクリックすると気象観測と天気予報を参照できる。

マップの切り替え:黒色「×」印の緑ボタンをクリックして拡大、「-」印の緑ボタンをクリックして縮小、緑色の三角印をクリックして隣りの地図に切り替え


METAR-TAF: